createdAt,value
2017-12-22T00:01:08.785Z,99.99
2017-12-22T00:02:18.765Z,99.99
2017-12-22T00:03:28.749Z,99.99
2017-12-22T00:04:38.727Z,99.99
2017-12-22T00:05:48.711Z,99.99
2017-12-22T00:06:58.696Z,99.99
2017-12-22T00:08:08.678Z,99.99
2017-12-22T00:09:18.659Z,99.99
2017-12-22T00:10:28.637Z,99.99
2017-12-22T00:11:38.624Z,99.99
2017-12-22T00:12:48.607Z,99.99
2017-12-22T00:13:58.598Z,99.99
2017-12-22T00:15:08.610Z,99.99
2017-12-22T00:16:18.321Z,99.99
2017-12-22T00:17:28.304Z,99.99
2017-12-22T00:18:38.294Z,99.99
2017-12-22T00:19:48.020Z,99.99
2017-12-22T00:20:57.997Z,99.99
2017-12-22T00:22:07.976Z,99.99
2017-12-22T00:23:17.692Z,99.99
2017-12-22T00:24:27.675Z,99.99
2017-12-22T00:25:37.395Z,99.99
2017-12-22T00:26:47.374Z,99.99
2017-12-22T00:27:57.355Z,99.99
2017-12-22T00:29:07.336Z,99.99
2017-12-22T00:30:17.322Z,99.99
2017-12-22T00:31:27.043Z,99.99
2017-12-22T00:32:37.131Z,99.99
2017-12-22T00:33:47.120Z,99.99
2017-12-22T00:34:57.191Z,99.99
2017-12-22T00:36:06.907Z,99.99
2017-12-22T00:37:16.679Z,99.99
2017-12-22T00:38:26.397Z,99.99
2017-12-22T00:39:36.377Z,99.99
2017-12-22T00:40:46.356Z,99.99
2017-12-22T00:41:56.340Z,99.99
2017-12-22T00:43:06.326Z,99.99
2017-12-22T00:44:16.042Z,99.99
2017-12-22T00:45:25.757Z,99.99
2017-12-22T00:46:35.744Z,99.99
2017-12-22T00:47:45.724Z,99.99
2017-12-22T00:48:55.709Z,99.99
2017-12-22T00:50:05.486Z,99.99
2017-12-22T00:51:15.517Z,99.99
2017-12-22T00:52:25.498Z,99.99
2017-12-22T00:53:34.948Z,99.99
2017-12-22T00:54:44.930Z,99.99
2017-12-22T00:55:54.920Z,99.99
2017-12-22T00:57:04.899Z,99.99
2017-12-22T00:58:14.879Z,99.99
2017-12-22T00:59:24.861Z,99.99
2017-12-22T01:00:34.845Z,99.99
2017-12-22T01:01:44.560Z,99.99
2017-12-22T01:02:54.285Z,99.99
2017-12-22T01:04:04.270Z,99.99
2017-12-22T01:05:14.248Z,99.99
2017-12-22T01:06:24.005Z,99.99
2017-12-22T01:07:33.987Z,99.99
2017-12-22T01:08:43.977Z,99.99
2017-12-22T01:09:53.957Z,99.99
2017-12-22T01:11:03.937Z,99.99
2017-12-22T01:12:13.652Z,99.99
2017-12-22T01:13:23.375Z,99.99
2017-12-22T01:14:32.823Z,99.99
2017-12-22T01:15:42.801Z,99.99
2017-12-22T01:16:52.782Z,99.99
2017-12-22T01:18:02.497Z,99.99
2017-12-22T01:19:14.213Z,99.99
2017-12-22T01:20:24.199Z,99.99
2017-12-22T01:21:34.184Z,99.99
2017-12-22T01:22:44.161Z,99.99
2017-12-22T01:23:54.143Z,99.99
2017-12-22T01:25:04.128Z,99.99
2017-12-22T01:26:14.115Z,99.99
2017-12-22T01:27:24.093Z,99.99
2017-12-22T01:28:33.809Z,99.99
2017-12-22T01:29:43.794Z,99.99
2017-12-22T01:30:53.786Z,99.99
2017-12-22T01:32:03.776Z,99.99
2017-12-22T01:33:13.488Z,99.99
2017-12-22T01:34:23.468Z,99.99
2017-12-22T01:35:32.914Z,99.99
2017-12-22T01:36:42.627Z,99.99
2017-12-22T01:37:52.344Z,99.99
2017-12-22T01:39:02.321Z,99.99
2017-12-22T01:40:12.302Z,99.99
2017-12-22T01:41:22.318Z,99.99
2017-12-22T01:42:32.043Z,99.99
2017-12-22T01:43:42.025Z,99.99
2017-12-22T01:44:51.738Z,99.99
2017-12-22T01:46:01.728Z,99.99
2017-12-22T01:47:11.442Z,99.99
2017-12-22T01:48:21.422Z,99.99
2017-12-22T01:49:31.400Z,99.99
2017-12-22T01:50:41.383Z,99.99
2017-12-22T01:51:51.370Z,99.99
2017-12-22T01:53:01.348Z,99.99
2017-12-22T01:54:11.331Z,99.99
2017-12-22T01:55:21.308Z,99.99
2017-12-22T01:56:31.025Z,99.99
2017-12-22T01:57:41.076Z,99.99
2017-12-22T01:58:51.065Z,99.99
2017-12-22T02:00:00.794Z,99.99
2017-12-22T02:01:10.776Z,99.99
2017-12-22T02:02:20.496Z,99.99
2017-12-22T02:03:30.213Z,99.99
2017-12-22T02:04:40.203Z,99.99
2017-12-22T02:05:50.179Z,99.99
2017-12-22T02:07:00.173Z,99.99
2017-12-22T02:08:10.163Z,99.99
2017-12-22T02:09:20.155Z,99.99
2017-12-22T02:10:30.140Z,99.99
2017-12-22T02:11:40.117Z,99.99
2017-12-22T02:12:50.105Z,99.99
2017-12-22T02:14:00.083Z,99.99
2017-12-22T02:15:10.070Z,99.99
2017-12-22T02:16:19.788Z,99.99
2017-12-22T02:17:29.769Z,99.99
2017-12-22T02:18:39.793Z,99.37
2017-12-22T02:19:49.509Z,99.08
2017-12-22T02:20:58.958Z,99.75
2017-12-22T02:22:08.941Z,99.37
2017-12-22T02:23:18.922Z,99.18
2017-12-22T02:24:28.638Z,98.33
2017-12-22T02:25:38.619Z,97.86
2017-12-22T02:26:48.601Z,97.77
2017-12-22T02:27:58.577Z,97.29
2017-12-22T02:29:08.570Z,97.1
2017-12-22T02:30:18.551Z,97.2
2017-12-22T02:31:28.535Z,97.29
2017-12-22T02:32:38.525Z,96.44
2017-12-22T02:33:48.510Z,97.1
2017-12-22T02:34:58.503Z,96.35
2017-12-22T02:36:08.224Z,96.73
2017-12-22T02:37:18.218Z,96.16
2017-12-22T02:38:28.200Z,96.44
2017-12-22T02:39:37.918Z,96.63
2017-12-22T02:40:47.897Z,97.2
2017-12-22T02:41:57.879Z,97.1
2017-12-22T02:43:07.881Z,97.77
2017-12-22T02:44:17.872Z,98.14
2017-12-22T02:45:27.856Z,98.43
2017-12-22T02:46:37.836Z,98.99
2017-12-22T02:47:47.558Z,98.61
2017-12-22T02:48:57.538Z,97.2
2017-12-22T02:50:06.991Z,98.14
2017-12-22T02:51:16.975Z,98.85
2017-12-22T02:52:26.703Z,99.99
2017-12-22T02:53:36.696Z,99.99
2017-12-22T02:54:46.682Z,99.99
2017-12-22T02:55:56.675Z,99.99
2017-12-22T02:57:06.665Z,99.99
2017-12-22T02:58:16.657Z,99.99
2017-12-22T02:59:26.637Z,99.99
2017-12-22T03:00:36.624Z,99.99
2017-12-22T03:01:46.636Z,99.99
2017-12-22T03:02:56.613Z,99.99
2017-12-22T03:04:06.329Z,99.99
2017-12-22T03:05:15.777Z,99.99
2017-12-22T03:06:25.760Z,99.99
2017-12-22T03:07:35.748Z,99.99
2017-12-22T03:08:45.732Z,99.99
2017-12-22T03:09:55.718Z,99.99
2017-12-22T03:11:05.703Z,99.37
2017-12-22T03:12:15.690Z,99.37
2017-12-22T03:13:25.690Z,98.43
2017-12-22T03:14:35.690Z,98.33
2017-12-22T03:15:45.674Z,97.77
2017-12-22T03:16:55.661Z,97.39
2017-12-22T03:18:05.378Z,97.01
2017-12-22T03:19:14.563Z,97.39
2017-12-22T03:20:24.559Z,97.39
2017-12-22T03:21:34.589Z,97.96
2017-12-22T03:22:44.574Z,97.39
2017-12-22T03:23:54.565Z,97.39
2017-12-22T03:25:04.544Z,98.05
2017-12-22T03:26:14.521Z,99.18
2017-12-22T03:27:24.235Z,99.41
2017-12-22T03:28:34.218Z,99.99
2017-12-22T03:29:44.201Z,99.99
2017-12-22T03:30:54.186Z,99.99
2017-12-22T03:32:04.180Z,99.99
2017-12-22T03:33:13.630Z,99.99
2017-12-22T03:34:23.613Z,99.99
2017-12-22T03:35:33.328Z,99.99
2017-12-22T03:36:43.134Z,99.99
2017-12-22T03:37:53.119Z,99.99
2017-12-22T03:39:03.105Z,99.99
2017-12-22T03:40:13.086Z,99.99
2017-12-22T03:41:23.068Z,99.99
2017-12-22T03:42:33.057Z,99.99
2017-12-22T03:43:43.035Z,99.99
2017-12-22T03:44:52.754Z,99.99
2017-12-22T03:46:02.741Z,99.99
2017-12-22T03:47:12.460Z,99.99
2017-12-22T03:48:22.174Z,99.99
2017-12-22T03:49:32.156Z,99.99
2017-12-22T03:50:41.870Z,99.99
2017-12-22T03:51:51.871Z,99.99
2017-12-22T03:53:01.586Z,99.99
2017-12-22T03:54:11.300Z,99.99
2017-12-22T03:55:21.020Z,99.99
2017-12-22T03:56:31.003Z,99.99
2017-12-22T03:57:40.991Z,99.99
2017-12-22T03:58:51.033Z,99.99
2017-12-22T04:00:00.751Z,99.99
2017-12-22T04:03:42.507Z,99.99
2017-12-22T04:04:52.219Z,99.99
2017-12-22T04:06:02.215Z,99.99
2017-12-22T04:07:11.932Z,99.99
2017-12-22T04:08:21.696Z,99.18
2017-12-22T04:09:31.672Z,98.33
2017-12-22T04:10:41.651Z,97.29
2017-12-22T04:11:51.632Z,98.05
2017-12-22T04:13:01.607Z,98.8
2017-12-22T04:14:11.592Z,97.01
2017-12-22T04:15:21.584Z,97.01
2017-12-22T04:16:31.567Z,97.53
2017-12-22T04:17:41.614Z,98.19
2017-12-22T04:18:51.594Z,99.6
2017-12-22T04:20:01.574Z,99.99
2017-12-22T04:21:11.025Z,99.99
2017-12-22T04:22:21.018Z,99.99
2017-12-22T04:23:31.004Z,99.99
2017-12-22T04:24:40.996Z,99.99
2017-12-22T04:25:50.712Z,99.99
2017-12-22T04:27:00.702Z,99.99
2017-12-22T04:28:10.427Z,99.99
2017-12-22T04:29:20.149Z,99.99
2017-12-22T04:30:30.136Z,99.99
2017-12-22T04:31:40.122Z,99.99
2017-12-22T04:32:50.101Z,99.99
2017-12-22T04:34:00.086Z,99.99
2017-12-22T04:35:09.805Z,99.99
2017-12-22T04:36:19.792Z,99.99
2017-12-22T04:37:29.780Z,99.99
2017-12-22T04:38:39.759Z,99.99
2017-12-22T04:39:49.741Z,99.99
2017-12-22T04:40:59.728Z,99.99
2017-12-22T04:42:09.705Z,99.99
2017-12-22T04:43:19.690Z,99.99
2017-12-22T04:44:29.409Z,99.99
2017-12-22T04:45:39.389Z,99.99
2017-12-22T04:46:49.367Z,99.99
2017-12-22T04:47:59.348Z,99.99
2017-12-22T04:49:09.326Z,99.99
2017-12-22T04:50:18.773Z,99.99
2017-12-22T04:51:28.754Z,99.99
2017-12-22T04:52:38.469Z,99.99
2017-12-22T04:53:48.450Z,99.99
2017-12-22T04:54:58.428Z,99.99
2017-12-22T04:56:08.415Z,99.99
2017-12-22T04:57:18.136Z,99.99
2017-12-22T04:58:28.121Z,99.99
2017-12-22T04:59:38.116Z,99.99
2017-12-22T05:00:48.091Z,99.99
2017-12-22T05:01:58.069Z,99.99
2017-12-22T05:03:07.788Z,99.99
2017-12-22T05:04:17.767Z,99.99
2017-12-22T05:05:27.759Z,99.99
2017-12-22T05:06:37.743Z,99.99
2017-12-22T05:07:47.458Z,99.99
2017-12-22T05:08:57.450Z,99.99
2017-12-22T05:10:07.167Z,99.99
2017-12-22T05:11:17.150Z,99.99
2017-12-22T05:12:27.133Z,99.99
2017-12-22T05:13:37.120Z,99.99
2017-12-22T05:14:47.111Z,99.99
2017-12-22T05:15:57.104Z,99.99
2017-12-22T05:17:07.082Z,99.99
2017-12-22T05:18:17.061Z,99.99
2017-12-22T05:19:26.771Z,99.99
2017-12-22T05:20:36.756Z,99.99
2017-12-22T05:21:46.471Z,99.99
2017-12-22T05:22:56.184Z,99.99
2017-12-22T05:24:06.166Z,99.99
2017-12-22T05:25:16.146Z,99.99
2017-12-22T05:26:26.125Z,99.99
2017-12-22T05:27:36.101Z,99.99
2017-12-22T05:28:45.812Z,99.99
2017-12-22T05:29:55.791Z,99.99
2017-12-22T05:31:05.853Z,99.99
2017-12-22T05:32:15.570Z,99.99
2017-12-22T05:33:25.553Z,99.99
2017-12-22T05:34:35.532Z,99.99
2017-12-22T05:35:45.520Z,99.99
2017-12-22T05:36:55.495Z,99.99
2017-12-22T05:38:05.474Z,99.99
2017-12-22T05:39:15.192Z,99.99
2017-12-22T05:40:25.187Z,99.99
2017-12-22T05:41:35.234Z,99.99
2017-12-22T05:42:45.211Z,99.99
2017-12-22T05:43:55.263Z,99.99
2017-12-22T05:45:05.251Z,99.99
2017-12-22T05:46:14.961Z,99.99
2017-12-22T05:47:24.942Z,99.99
2017-12-22T05:48:34.953Z,99.99
2017-12-22T05:49:44.932Z,99.99
2017-12-22T05:50:54.912Z,99.99
2017-12-22T05:52:04.624Z,99.99
2017-12-22T05:53:14.345Z,99.99
2017-12-22T05:54:24.323Z,99.99
2017-12-22T05:55:34.301Z,99.99
2017-12-22T05:56:44.277Z,99.99
2017-12-22T05:57:54.263Z,99.99
2017-12-22T05:59:03.986Z,99.99
2017-12-22T06:00:13.973Z,99.99
2017-12-22T06:01:23.952Z,99.99
2017-12-22T06:02:33.927Z,99.99
2017-12-22T06:03:43.674Z,99.99
2017-12-22T06:04:53.648Z,99.99
2017-12-22T06:06:03.633Z,99.99
2017-12-22T06:07:13.620Z,99.99
2017-12-22T06:08:23.338Z,99.99
2017-12-22T06:09:33.322Z,99.99
2017-12-22T06:10:43.295Z,99.99
2017-12-22T06:11:53.274Z,99.99
2017-12-22T06:13:03.249Z,99.99
2017-12-22T06:14:13.225Z,99.99
2017-12-22T06:15:23.200Z,99.99
2017-12-22T06:16:32.915Z,99.99
2017-12-22T06:17:42.894Z,99.99
2017-12-22T06:18:52.604Z,99.99
2017-12-22T06:20:02.585Z,99.99
2017-12-22T06:21:12.300Z,99.99
2017-12-22T06:22:22.283Z,99.99
2017-12-22T06:23:32.258Z,99.99
2017-12-22T06:24:42.240Z,99.99
2017-12-22T06:25:52.218Z,99.99
2017-12-22T06:27:01.932Z,99.99
2017-12-22T06:28:11.648Z,99.99
2017-12-22T06:29:21.662Z,99.99
2017-12-22T06:30:31.676Z,99.99
2017-12-22T06:31:41.658Z,99.99
2017-12-22T06:32:51.683Z,99.99
2017-12-22T06:34:01.658Z,99.99
2017-12-22T06:35:11.635Z,99.99
2017-12-22T06:36:21.613Z,99.99
2017-12-22T06:37:31.327Z,99.99
2017-12-22T06:38:41.313Z,99.99
2017-12-22T06:39:51.291Z,99.99
2017-12-22T06:41:01.280Z,99.99
2017-12-22T06:42:11.254Z,99.99
2017-12-22T06:43:21.238Z,99.99
2017-12-22T06:44:30.956Z,99.99
2017-12-22T06:45:40.943Z,99.99
2017-12-22T06:46:50.659Z,99.99
2017-12-22T06:48:00.648Z,99.99
2017-12-22T06:49:10.634Z,99.99
2017-12-22T06:50:20.361Z,99.99
2017-12-22T06:51:30.392Z,99.99
2017-12-22T06:52:40.371Z,99.99
2017-12-22T06:53:50.401Z,99.99
2017-12-22T06:55:00.381Z,99.99
2017-12-22T06:56:09.840Z,99.99
2017-12-22T06:57:19.550Z,99.99
2017-12-22T06:58:29.260Z,99.99
2017-12-22T06:59:39.241Z,99.99
2017-12-22T07:00:49.215Z,99.99
2017-12-22T07:01:59.195Z,99.99
2017-12-22T07:03:08.911Z,99.99
2017-12-22T07:04:18.889Z,99.99
2017-12-22T07:05:28.602Z,99.99
2017-12-22T07:06:38.596Z,99.99
2017-12-22T07:07:48.586Z,99.99
2017-12-22T07:08:58.566Z,99.99
2017-12-22T07:10:08.544Z,99.99
2017-12-22T07:11:18.523Z,99.99
2017-12-22T07:12:28.501Z,99.99
2017-12-22T07:13:38.214Z,99.99
2017-12-22T07:14:48.194Z,99.99
2017-12-22T07:15:58.173Z,99.99
2017-12-22T07:17:08.152Z,99.99
2017-12-22T07:18:18.151Z,99.99
2017-12-22T07:19:28.127Z,99.99
2017-12-22T07:20:38.108Z,99.99
2017-12-22T07:21:48.087Z,99.99
2017-12-22T07:22:58.063Z,99.99
2017-12-22T07:24:08.046Z,99.99
2017-12-22T07:25:18.029Z,99.99
2017-12-22T07:26:28.009Z,99.99
2017-12-22T07:27:37.741Z,99.99
2017-12-22T07:28:47.722Z,99.99
2017-12-22T07:29:57.751Z,99.99
2017-12-22T07:31:07.511Z,99.99
2017-12-22T07:32:17.488Z,99.99
2017-12-22T07:33:27.475Z,99.99
2017-12-22T07:34:37.193Z,99.99
2017-12-22T07:35:47.168Z,99.99
2017-12-22T07:36:57.154Z,99.99
2017-12-22T07:38:07.140Z,99.99
2017-12-22T07:39:17.120Z,99.99
2017-12-22T07:40:27.095Z,99.99
2017-12-22T07:41:37.073Z,99.99
2017-12-22T07:42:47.057Z,99.99
2017-12-22T07:43:57.039Z,99.99
2017-12-22T07:45:07.022Z,99.99
2017-12-22T07:46:16.745Z,99.99
2017-12-22T07:47:26.720Z,99.99
2017-12-22T07:48:36.697Z,99.99
2017-12-22T07:49:46.676Z,99.99
2017-12-22T07:50:56.390Z,99.99
2017-12-22T07:52:06.371Z,99.99
2017-12-22T07:53:16.087Z,99.99
2017-12-22T07:54:26.073Z,99.99
2017-12-22T07:55:36.055Z,99.99
2017-12-22T07:56:46.042Z,99.99
2017-12-22T07:57:56.020Z,99.99
2017-12-22T07:59:06.002Z,99.99
2017-12-22T08:00:15.981Z,99.99
2017-12-22T08:01:25.974Z,99.99
2017-12-22T08:02:35.704Z,99.99
2017-12-22T08:03:45.689Z,99.99
2017-12-22T08:04:55.667Z,99.99
2017-12-22T08:06:05.647Z,99.99
2017-12-22T08:07:15.370Z,99.99
2017-12-22T08:08:27.089Z,99.99
2017-12-22T08:09:37.087Z,99.99
2017-12-22T08:10:47.074Z,99.99
2017-12-22T08:11:57.065Z,99.99
2017-12-22T08:13:07.050Z,99.99
2017-12-22T08:14:16.767Z,99.99
2017-12-22T08:15:26.744Z,99.99
2017-12-22T08:16:36.727Z,99.99
2017-12-22T08:17:46.444Z,99.99
2017-12-22T08:18:56.425Z,99.99
2017-12-22T08:20:06.408Z,99.99
2017-12-22T08:21:16.389Z,99.99
2017-12-22T08:22:26.370Z,99.99
2017-12-22T08:23:36.080Z,99.99
2017-12-22T08:24:46.065Z,99.99
2017-12-22T08:25:56.043Z,99.99
2017-12-22T08:27:06.025Z,99.99
2017-12-22T08:28:16.009Z,99.99
2017-12-22T08:29:25.991Z,99.99
2017-12-22T08:30:35.972Z,99.99
2017-12-22T08:31:45.948Z,99.99
2017-12-22T08:32:55.931Z,99.99
2017-12-22T08:34:05.917Z,99.99
2017-12-22T08:35:15.896Z,99.99
2017-12-22T08:36:25.873Z,99.99
2017-12-22T08:37:35.862Z,99.99
2017-12-22T08:38:45.848Z,99.99
2017-12-22T08:39:55.838Z,99.99
2017-12-22T08:41:05.556Z,99.99
2017-12-22T08:42:15.542Z,99.99
2017-12-22T08:43:25.530Z,99.99
2017-12-22T08:44:35.570Z,99.99
2017-12-22T08:45:45.567Z,99.99
2017-12-22T08:46:55.544Z,99.99
2017-12-22T08:48:05.257Z,99.99
2017-12-22T08:49:14.712Z,99.99
2017-12-22T08:50:24.763Z,99.99
2017-12-22T08:51:34.788Z,99.99
2017-12-22T08:52:44.512Z,99.99
2017-12-22T08:53:54.489Z,99.99
2017-12-22T08:55:04.476Z,99.99
2017-12-22T08:56:14.304Z,99.99
2017-12-22T08:57:24.284Z,99.99
2017-12-22T08:58:34.262Z,99.99
2017-12-22T08:59:43.977Z,99.99
2017-12-22T09:00:54.455Z,99.99
2017-12-22T09:02:04.178Z,99.99
2017-12-22T09:03:14.156Z,99.99
2017-12-22T09:04:24.137Z,99.99
2017-12-22T09:05:34.118Z,99.99
2017-12-22T09:06:44.096Z,99.99
2017-12-22T09:07:54.089Z,99.99
2017-12-22T09:09:04.072Z,99.99
2017-12-22T09:10:14.061Z,99.99
2017-12-22T09:11:24.043Z,99.99
2017-12-22T09:12:34.025Z,99.99
2017-12-22T09:13:44.005Z,99.99
2017-12-22T09:14:53.985Z,99.99
2017-12-22T09:16:03.970Z,99.99
2017-12-22T09:17:13.701Z,99.99
2017-12-22T09:18:23.676Z,99.99
2017-12-22T09:19:33.388Z,99.99
2017-12-22T09:20:43.101Z,99.99
2017-12-22T09:21:53.082Z,99.99
2017-12-22T09:23:03.116Z,99.99
2017-12-22T09:24:13.098Z,99.99
2017-12-22T09:25:23.076Z,99.99
2017-12-22T09:26:32.793Z,99.99
2017-12-22T09:27:42.509Z,99.99
2017-12-22T09:28:52.589Z,99.99
2017-12-22T09:30:04.629Z,99.99
2017-12-22T09:31:14.453Z,99.99
2017-12-22T09:32:24.165Z,99.99
2017-12-22T09:33:34.142Z,99.99
2017-12-22T09:34:44.168Z,99.99
2017-12-22T09:35:53.999Z,99.99
2017-12-22T09:37:03.735Z,99.99
2017-12-22T09:38:13.446Z,99.99
2017-12-22T09:39:23.421Z,99.99
2017-12-22T09:40:33.167Z,99.99
2017-12-22T09:41:42.891Z,99.99
2017-12-22T09:42:52.606Z,99.99
2017-12-22T09:44:02.596Z,99.99
2017-12-22T09:45:12.313Z,99.99
2017-12-22T09:46:22.375Z,99.99
2017-12-22T09:47:32.359Z,99.99
2017-12-22T09:48:42.337Z,99.99
2017-12-22T09:49:52.057Z,99.99
2017-12-22T09:51:02.135Z,99.99
2017-12-22T09:52:11.916Z,99.99
2017-12-22T09:53:21.677Z,99.99
2017-12-22T09:54:31.667Z,99.99
2017-12-22T09:55:41.657Z,99.99
2017-12-22T09:56:51.370Z,99.99
2017-12-22T09:58:01.354Z,99.99
2017-12-22T09:59:10.800Z,99.99
2017-12-22T10:00:20.793Z,99.99
2017-12-22T10:01:30.777Z,99.99
2017-12-22T10:02:40.506Z,99.99
2017-12-22T10:03:50.224Z,99.99
2017-12-22T10:05:00.210Z,99.99
2017-12-22T10:06:09.924Z,99.99
2017-12-22T10:07:19.909Z,99.99
2017-12-22T10:08:29.356Z,99.99
2017-12-22T10:09:39.077Z,99.99
2017-12-22T10:10:48.815Z,99.99
2017-12-22T10:11:58.817Z,99.99
2017-12-22T10:13:08.806Z,99.99
2017-12-22T10:14:18.781Z,99.99
2017-12-22T10:15:28.778Z,99.99
2017-12-22T10:16:38.792Z,99.99
2017-12-22T10:17:48.776Z,99.99
2017-12-22T10:18:58.767Z,99.99
2017-12-22T10:20:08.780Z,99.99
2017-12-22T10:21:18.495Z,99.99
2017-12-22T10:22:28.486Z,99.99
2017-12-22T10:23:38.200Z,99.99
2017-12-22T10:24:48.179Z,99.99
2017-12-22T10:25:57.897Z,99.99
2017-12-22T10:27:07.875Z,99.99
2017-12-22T10:28:17.857Z,99.99
2017-12-22T10:29:27.845Z,99.99
2017-12-22T10:30:37.554Z,99.99
2017-12-22T10:31:47.538Z,99.99
2017-12-22T10:32:57.521Z,99.99
2017-12-22T10:34:07.558Z,99.99
2017-12-22T10:35:17.593Z,99.99
2017-12-22T10:36:27.304Z,99.99
2017-12-22T10:37:37.285Z,99.99
2017-12-22T10:38:47.267Z,99.99
2017-12-22T10:39:57.242Z,99.99
2017-12-22T10:41:07.243Z,99.99
2017-12-22T10:42:17.224Z,99.99
2017-12-22T10:43:26.938Z,99.99
2017-12-22T10:44:36.974Z,99.99
2017-12-22T10:45:47.305Z,99.99
2017-12-22T10:46:57.290Z,99.99
2017-12-22T10:48:07.064Z,99.99
2017-12-22T10:49:17.047Z,99.99
2017-12-22T10:50:27.030Z,99.99
2017-12-22T10:51:36.742Z,99.99
2017-12-22T10:52:46.461Z,99.99
2017-12-22T10:53:55.909Z,99.99
2017-12-22T10:55:05.890Z,99.99
2017-12-22T10:56:15.878Z,99.99
2017-12-22T10:57:25.859Z,99.99
2017-12-22T10:58:35.839Z,99.99
2017-12-22T10:59:45.824Z,99.99
2017-12-22T11:00:55.543Z,99.99
2017-12-22T11:02:05.523Z,99.99
2017-12-22T11:03:15.514Z,99.99
2017-12-22T11:04:25.492Z,99.99
2017-12-22T11:05:35.474Z,99.99
2017-12-22T11:06:45.453Z,99.99
2017-12-22T11:07:55.434Z,99.99
2017-12-22T11:09:06.070Z,99.99
2017-12-22T11:10:16.048Z,99.99
2017-12-22T11:11:26.024Z,99.99
2017-12-22T11:12:35.738Z,99.99
2017-12-22T11:13:45.718Z,99.99
2017-12-22T11:14:55.702Z,99.99
2017-12-22T11:16:05.418Z,99.99
2017-12-22T11:17:15.139Z,99.99
2017-12-22T11:18:25.136Z,99.99
2017-12-22T11:19:35.202Z,99.99
2017-12-22T11:20:44.919Z,99.99
2017-12-22T11:21:54.910Z,99.99
2017-12-22T11:23:04.893Z,99.99
2017-12-22T11:24:14.882Z,99.99
2017-12-22T11:25:24.601Z,99.99
2017-12-22T11:26:34.583Z,99.99
2017-12-22T11:27:44.567Z,99.99
2017-12-22T11:28:54.335Z,99.99
2017-12-22T11:30:04.312Z,99.99
2017-12-22T11:31:14.034Z,99.99
2017-12-22T11:32:23.755Z,99.99
2017-12-22T11:33:33.474Z,99.99
2017-12-22T11:34:43.478Z,99.99
2017-12-22T11:35:53.192Z,99.99
2017-12-22T11:37:03.180Z,99.99
2017-12-22T11:38:13.166Z,99.99
2017-12-22T11:39:23.150Z,99.99
2017-12-22T11:40:32.889Z,99.99
2017-12-22T11:41:42.876Z,99.99
2017-12-22T11:42:52.855Z,99.99
2017-12-22T11:44:02.847Z,99.99
2017-12-22T11:45:12.878Z,99.99
2017-12-22T11:46:22.332Z,99.99
2017-12-22T11:47:32.317Z,99.99
2017-12-22T11:48:42.305Z,99.99
2017-12-22T11:49:52.020Z,99.99
2017-12-22T11:51:01.737Z,99.99
2017-12-22T11:52:11.721Z,98.28
2017-12-22T11:53:21.446Z,96.68
2017-12-22T11:54:31.431Z,96.59
2017-12-22T11:55:41.431Z,96.4
2017-12-22T11:56:51.456Z,96.59
2017-12-22T11:58:01.454Z,95.36
2017-12-22T11:59:11.495Z,95.45
2017-12-22T12:00:21.478Z,96.02
2017-12-22T12:01:31.197Z,95.26
2017-12-22T12:02:41.189Z,95.92
2017-12-22T12:03:50.919Z,95.54
2017-12-22T12:05:00.906Z,95.17
2017-12-22T12:06:10.625Z,96.11
2017-12-22T12:07:20.612Z,94.79
2017-12-22T12:08:30.345Z,93.89
2017-12-22T12:09:40.329Z,92.1
2017-12-22T12:10:50.317Z,91.34
2017-12-22T12:12:00.304Z,91.53
2017-12-22T12:13:10.288Z,91.62
2017-12-22T12:14:20.034Z,91.53
2017-12-22T12:15:30.018Z,91.72
2017-12-22T12:16:40.122Z,92
2017-12-22T12:17:50.112Z,90.58
2017-12-22T12:19:00.105Z,89.97
2017-12-22T12:20:10.099Z,89.87
2017-12-22T12:21:19.830Z,89.97
2017-12-22T12:22:29.573Z,89.78
2017-12-22T12:23:39.617Z,89.12
2017-12-22T12:24:50.553Z,89.59
2017-12-22T12:26:00.537Z,89.59
2017-12-22T12:27:10.259Z,87.36
2017-12-22T12:28:20.327Z,88.02
2017-12-22T12:29:30.348Z,87.08
2017-12-22T12:30:42.164Z,87.17
2017-12-22T12:31:52.150Z,85.38
2017-12-22T12:33:02.135Z,85.05
2017-12-22T12:34:11.590Z,84.1
2017-12-22T12:35:21.578Z,84.2
2017-12-22T12:36:31.302Z,85
2017-12-22T12:37:41.288Z,85.19
2017-12-22T12:38:51.284Z,86.33
2017-12-22T12:40:01.015Z,86.42
2017-12-22T12:41:10.745Z,86.61
2017-12-22T12:42:20.736Z,87.46
2017-12-22T12:43:30.466Z,87.18
2017-12-22T12:44:40.185Z,87.27
2017-12-22T12:45:50.184Z,86.47
2017-12-22T12:47:00.172Z,87.23
2017-12-22T12:48:09.893Z,87.61
2017-12-22T12:49:19.889Z,87.42
2017-12-22T12:50:29.924Z,87.04
2017-12-22T12:51:39.908Z,87.42
2017-12-22T12:52:49.902Z,87.89
2017-12-22T12:53:59.935Z,88.51
2017-12-22T12:55:09.398Z,88.51
2017-12-22T12:56:19.394Z,87.18
2017-12-22T12:57:29.383Z,86.71
2017-12-22T12:58:39.413Z,86.86
2017-12-22T12:59:49.399Z,87.14
2017-12-22T13:00:59.117Z,88.46
2017-12-22T13:02:08.567Z,89.78
2017-12-22T13:03:18.551Z,90.92
2017-12-22T13:04:28.273Z,91.63
2017-12-22T13:05:38.252Z,92.47
2017-12-22T13:06:48.231Z,93.13
2017-12-22T13:07:58.210Z,95.03
2017-12-22T13:09:08.192Z,95.5
2017-12-22T13:10:17.911Z,96.15
2017-12-22T13:11:27.360Z,95.59
2017-12-22T13:12:36.810Z,94.46
2017-12-22T13:13:46.525Z,94.27
2017-12-22T13:14:56.503Z,94.84
2017-12-22T13:16:06.268Z,95.68
2017-12-22T13:17:16.248Z,96.34
2017-12-22T13:18:26.239Z,96.15
2017-12-22T13:19:36.217Z,96.72
2017-12-22T13:20:46.198Z,96.77
2017-12-22T13:21:55.915Z,98.37
2017-12-22T13:23:05.365Z,99.13
2017-12-22T13:24:14.548Z,99.22
2017-12-22T13:25:24.262Z,99.99
2017-12-22T13:26:34.245Z,99.99
2017-12-22T13:27:44.232Z,99.99
2017-12-22T13:28:53.953Z,99.99
2017-12-22T13:30:03.936Z,99.99
2017-12-22T13:31:13.919Z,99.99
2017-12-22T13:32:23.632Z,99.99
2017-12-22T13:33:33.620Z,99.99
2017-12-22T13:34:43.337Z,99.99
2017-12-22T13:35:53.053Z,99.99
2017-12-22T13:37:03.035Z,99.99
2017-12-22T13:38:13.042Z,99.99
2017-12-22T13:39:22.762Z,99.99
2017-12-22T13:40:32.477Z,99.99
2017-12-22T13:41:42.197Z,99.99
2017-12-22T13:42:52.177Z,99.99
2017-12-22T13:44:01.897Z,99.99
2017-12-22T13:45:11.879Z,99.99
2017-12-22T13:46:21.594Z,99.99
2017-12-22T13:47:31.575Z,99.99
2017-12-22T13:48:41.564Z,99.99
2017-12-22T13:49:51.550Z,99.99
2017-12-22T13:51:01.530Z,99.99
2017-12-22T13:52:11.514Z,99.99
2017-12-22T13:53:21.497Z,99.99
2017-12-22T13:54:31.484Z,99.99
2017-12-22T13:55:41.463Z,99.99
2017-12-22T13:56:51.439Z,99.99
2017-12-22T13:58:01.155Z,99.99
2017-12-22T13:59:10.930Z,99.99
2017-12-22T14:00:20.956Z,99.99
2017-12-22T14:01:30.931Z,99.99
2017-12-22T14:02:40.386Z,99.99
2017-12-22T14:03:50.376Z,99.99
2017-12-22T14:05:00.359Z,99.99
2017-12-22T14:06:10.071Z,99.99
2017-12-22T14:07:19.785Z,99.99
2017-12-22T14:08:29.499Z,99.99
2017-12-22T14:09:39.475Z,99.99
2017-12-22T14:10:49.459Z,99.99
2017-12-22T14:11:59.174Z,99.99
2017-12-22T14:13:08.890Z,99.99
2017-12-22T14:14:18.937Z,99.99
2017-12-22T14:15:28.913Z,99.99
2017-12-22T14:16:38.629Z,99.99
2017-12-22T14:17:48.348Z,99.99
2017-12-22T14:18:58.332Z,99.99
2017-12-22T14:20:08.310Z,99.99
2017-12-22T14:21:17.492Z,99.99
2017-12-22T14:22:27.475Z,99.99
2017-12-22T14:23:37.458Z,99.99
2017-12-22T14:24:47.441Z,99.99
2017-12-22T14:25:57.423Z,99.99
2017-12-22T14:27:07.401Z,99.99
2017-12-22T14:28:17.114Z,99.99
2017-12-22T14:29:26.824Z,99.99
2017-12-22T14:30:36.538Z,99.99
2017-12-22T14:31:46.258Z,99.99
2017-12-22T14:32:56.239Z,99.99
2017-12-22T14:34:06.247Z,99.99
2017-12-22T14:35:16.223Z,99.99
2017-12-22T14:36:26.203Z,99.99
2017-12-22T14:37:35.915Z,99.99
2017-12-22T14:38:45.895Z,99.99
2017-12-22T14:39:55.878Z,99.99
2017-12-22T14:41:05.603Z,99.99
2017-12-22T14:42:15.584Z,99.99
2017-12-22T14:43:25.561Z,99.99
2017-12-22T14:44:35.597Z,99.99
2017-12-22T14:45:45.591Z,99.99
2017-12-22T14:46:55.303Z,99.99
2017-12-22T14:48:05.284Z,99.99
2017-12-22T14:49:15.271Z,99.99
2017-12-22T14:50:25.253Z,99.99
2017-12-22T14:51:35.243Z,99.99
2017-12-22T14:52:44.964Z,99.99
2017-12-22T14:53:54.705Z,99.99
2017-12-22T14:55:04.736Z,99.99
2017-12-22T14:56:14.725Z,99.99
2017-12-22T14:57:24.704Z,99.99
2017-12-22T14:58:34.418Z,99.99
2017-12-22T14:59:44.422Z,99.99
2017-12-22T15:00:54.404Z,99.99
2017-12-22T15:02:04.387Z,99.99
2017-12-22T15:03:14.367Z,99.99
2017-12-22T15:04:24.347Z,99.99